createdAt,value
2023-03-26T00:00:57.850Z,10.11
2023-03-26T00:02:00.119Z,10.07
2023-03-26T00:03:02.060Z,9.93
2023-03-26T00:04:06.723Z,10.08
2023-03-26T00:05:09.348Z,9.84
2023-03-26T00:06:17.107Z,9.65
2023-03-26T00:07:19.459Z,9.86
2023-03-26T00:08:22.156Z,9.99
2023-03-26T00:09:24.068Z,9.94
2023-03-26T00:10:26.064Z,9.76
2023-03-26T00:11:29.552Z,9.78
2023-03-26T00:12:31.747Z,9.79
2023-03-26T00:13:33.896Z,9.91
2023-03-26T00:14:35.746Z,9.79
2023-03-26T00:15:37.970Z,9.82
2023-03-26T00:16:42.060Z,9.84
2023-03-26T00:17:46.521Z,9.72
2023-03-26T00:18:49.010Z,9.77
2023-03-26T00:19:50.837Z,9.80
2023-03-26T00:20:52.709Z,9.70
2023-03-26T00:21:54.662Z,9.61
2023-03-26T00:22:56.855Z,9.57
2023-03-26T00:24:08.156Z,9.62
2023-03-26T00:25:10.204Z,9.71
2023-03-26T00:26:12.929Z,9.84
2023-03-26T00:27:14.842Z,9.69
2023-03-26T00:28:21.512Z,9.59
2023-03-26T00:29:24.693Z,9.52
2023-03-26T00:30:27.747Z,9.46
2023-03-26T00:31:29.773Z,9.53
2023-03-26T00:32:32.391Z,9.50
2023-03-26T00:33:38.491Z,9.31
2023-03-26T00:34:41.484Z,9.32
2023-03-26T00:35:47.004Z,9.41
2023-03-26T00:36:54.275Z,9.54
2023-03-26T00:37:56.146Z,9.50
2023-03-26T00:38:58.521Z,9.40
2023-03-26T00:40:06.887Z,9.30
2023-03-26T00:41:24.996Z,9.22
2023-03-26T00:42:26.942Z,9.21
2023-03-26T00:43:32.876Z,9.21
2023-03-26T00:44:35.356Z,9.18
2023-03-26T00:45:37.258Z,9.19
2023-03-26T00:46:39.448Z,9.16
2023-03-26T00:47:43.534Z,9.18
2023-03-26T00:48:46.372Z,9.12
2023-03-26T00:49:49.300Z,9.15
2023-03-26T00:50:51.186Z,9.11
2023-03-26T00:51:53.260Z,9.25
2023-03-26T00:52:55.902Z,9.29
2023-03-26T00:53:58.149Z,9.24
2023-03-26T00:55:00.440Z,9.22
2023-03-26T00:56:02.293Z,9.20
2023-03-26T00:57:06.916Z,9.29
2023-03-26T00:58:12.246Z,9.24
2023-03-26T00:59:14.260Z,9.34
2023-03-26T01:00:18.932Z,9.37
2023-03-26T01:01:27.190Z,9.21
2023-03-26T01:02:29.794Z,9.23
2023-03-26T01:03:35.185Z,9.15
2023-03-26T01:04:37.921Z,9.20
2023-03-26T01:05:55.260Z,9.26
2023-03-26T01:07:02.426Z,9.33
2023-03-26T01:08:20.513Z,9.22
2023-03-26T01:09:30.664Z,9.29
2023-03-26T01:10:38.666Z,9.24
2023-03-26T01:11:42.323Z,9.26
2023-03-26T01:12:44.265Z,9.17
2023-03-26T01:13:52.446Z,9.19
2023-03-26T01:15:00.826Z,9.12
2023-03-26T01:16:07.897Z,9.01
2023-03-26T01:17:12.502Z,8.90
2023-03-26T01:18:14.609Z,8.88
2023-03-26T01:19:42.373Z,8.88
2023-03-26T01:20:46.932Z,9.02
2023-03-26T01:21:49.039Z,9.15
2023-03-26T01:22:54.735Z,9.12
2023-03-26T01:24:01.944Z,8.96
2023-03-26T01:25:04.288Z,9.01
2023-03-26T01:26:32.052Z,9.01
2023-03-26T01:27:44.471Z,9.12
2023-03-26T01:28:46.993Z,9.06
2023-03-26T01:30:10.481Z,8.94
2023-03-26T01:31:44.563Z,8.82
2023-03-26T01:33:01.646Z,9.00
2023-03-26T01:34:37.349Z,9.05
2023-03-26T01:36:01.224Z,9.07
2023-03-26T01:37:20.980Z,9.02
2023-03-26T01:38:46.778Z,9.02
2023-03-26T01:39:57.074Z,9.11
2023-03-26T01:41:10.792Z,9.09
2023-03-26T01:42:21.562Z,8.95
2023-03-26T01:43:49.084Z,8.96
2023-03-26T01:44:59.470Z,8.93
2023-03-26T01:46:05.322Z,9.00
2023-03-26T01:47:08.634Z,8.88
2023-03-26T01:48:10.725Z,8.88
2023-03-26T01:49:15.879Z,9.00
2023-03-26T01:50:18.072Z,8.86
2023-03-26T01:51:32.079Z,8.82
2023-03-26T01:52:34.170Z,8.94
2023-03-26T01:53:42.582Z,9.06
2023-03-26T01:54:46.772Z,9.18
2023-03-26T01:56:12.727Z,9.21
2023-03-26T01:57:40.774Z,9.13
2023-03-26T01:58:42.842Z,8.92
2023-03-26T01:59:44.642Z,9.01
2023-03-26T02:01:03.520Z,9.07
2023-03-26T02:02:30.836Z,8.85
2023-03-26T02:03:39.094Z,8.87
2023-03-26T02:04:53.440Z,8.85
2023-03-26T02:06:37.620Z,8.93
2023-03-26T02:07:58.579Z,9.00
2023-03-26T02:09:06.010Z,8.75
2023-03-26T02:10:24.085Z,8.83
2023-03-26T02:11:34.760Z,8.77
2023-03-26T02:12:37.855Z,8.74
2023-03-26T02:13:42.131Z,8.90
2023-03-26T02:14:44.738Z,8.93
2023-03-26T02:15:59.387Z,8.88
2023-03-26T02:17:01.662Z,8.92
2023-03-26T02:18:04.097Z,8.96
2023-03-26T02:19:09.996Z,8.95
2023-03-26T02:20:14.556Z,8.98
2023-03-26T02:21:22.196Z,8.91
2023-03-26T02:22:29.806Z,8.94
2023-03-26T02:23:35.769Z,9.05
2023-03-26T02:24:38.722Z,8.92
2023-03-26T02:25:42.085Z,8.81
2023-03-26T02:26:44.789Z,8.88
2023-03-26T02:27:47.618Z,8.93
2023-03-26T02:28:50.008Z,8.96
2023-03-26T02:29:52.091Z,9.04
2023-03-26T02:30:57.696Z,9.09
2023-03-26T02:31:59.736Z,8.92
2023-03-26T02:33:02.045Z,8.94
2023-03-26T02:34:04.655Z,8.83
2023-03-26T02:35:07.582Z,8.98
2023-03-26T02:36:12.613Z,8.95
2023-03-26T02:37:18.877Z,8.86
2023-03-26T02:38:25.293Z,8.98
2023-03-26T02:39:27.753Z,8.95
2023-03-26T02:40:30.137Z,8.98
2023-03-26T02:41:32.693Z,8.84
2023-03-26T02:42:35.182Z,8.80
2023-03-26T02:43:37.485Z,8.86
2023-03-26T02:44:42.121Z,8.88
2023-03-26T02:45:46.873Z,8.87
2023-03-26T02:46:52.670Z,8.95
2023-03-26T02:47:56.091Z,8.97
2023-03-26T02:49:03.674Z,8.89
2023-03-26T02:50:06.049Z,8.72
2023-03-26T02:51:09.524Z,8.87
2023-03-26T02:52:12.322Z,8.84
2023-03-26T02:53:14.493Z,8.78
2023-03-26T02:54:26.483Z,8.80
2023-03-26T02:55:29.012Z,8.91
2023-03-26T02:56:32.929Z,8.85
2023-03-26T02:57:36.150Z,8.71
2023-03-26T02:58:39.366Z,8.63
2023-03-26T02:59:42.333Z,8.61
2023-03-26T03:00:47.262Z,8.78
2023-03-26T03:01:50.300Z,8.68
2023-03-26T03:02:54.198Z,8.64
2023-03-26T03:03:57.655Z,8.78
2023-03-26T03:05:01.585Z,8.76
2023-03-26T03:06:05.214Z,8.60
2023-03-26T03:07:08.317Z,8.70
2023-03-26T03:08:10.700Z,8.78
2023-03-26T03:09:13.460Z,8.72
2023-03-26T03:10:21.780Z,8.58
2023-03-26T03:11:25.102Z,8.53
2023-03-26T03:12:27.108Z,8.34
2023-03-26T03:13:29.216Z,8.44
2023-03-26T03:14:31.690Z,8.55
2023-03-26T03:15:34.851Z,8.44
2023-03-26T03:16:36.908Z,8.40
2023-03-26T03:17:40.572Z,8.38
2023-03-26T03:18:42.683Z,8.41
2023-03-26T03:19:45.323Z,8.47
2023-03-26T03:20:47.880Z,8.38
2023-03-26T03:21:49.826Z,8.32
2023-03-26T03:22:51.801Z,8.33
2023-03-26T03:23:55.233Z,8.31
2023-03-26T03:24:59.950Z,8.42
2023-03-26T03:26:02.670Z,8.51
2023-03-26T03:27:06.057Z,8.49
2023-03-26T03:28:08.754Z,8.39
2023-03-26T03:29:10.679Z,8.45
2023-03-26T03:30:13.943Z,8.36
2023-03-26T03:31:18.651Z,8.24
2023-03-26T03:32:22.552Z,8.17
2023-03-26T03:33:25.302Z,8.19
2023-03-26T03:34:27.843Z,8.13
2023-03-26T03:35:30.765Z,8.10
2023-03-26T03:36:33.420Z,7.99
2023-03-26T03:37:36.103Z,8.10
2023-03-26T03:38:39.775Z,7.95
2023-03-26T03:39:41.625Z,8.00
2023-03-26T03:40:45.099Z,8.03
2023-03-26T03:41:49.255Z,8.09
2023-03-26T03:42:51.811Z,8.14
2023-03-26T03:43:54.722Z,7.93
2023-03-26T03:44:58.828Z,7.88
2023-03-26T03:46:03.812Z,7.94
2023-03-26T03:47:07.035Z,7.95
2023-03-26T03:48:09.304Z,7.91
2023-03-26T03:49:11.853Z,7.73
2023-03-26T03:50:13.995Z,7.87
2023-03-26T03:51:18.840Z,7.94
2023-03-26T03:52:21.314Z,8.01
2023-03-26T03:53:26.053Z,7.75
2023-03-26T03:54:28.799Z,7.87
2023-03-26T03:55:32.157Z,7.84
2023-03-26T03:56:36.146Z,7.73
2023-03-26T03:57:40.602Z,7.80
2023-03-26T03:58:45.508Z,7.86
2023-03-26T03:59:58.303Z,7.72
2023-03-26T04:01:04.228Z,7.77
2023-03-26T04:02:09.081Z,7.66
2023-03-26T04:03:14.411Z,7.65
2023-03-26T04:04:17.871Z,7.70
2023-03-26T04:05:21.307Z,7.81
2023-03-26T04:06:25.303Z,7.75
2023-03-26T04:07:32.824Z,7.87
2023-03-26T04:08:39.273Z,7.87
2023-03-26T04:09:41.653Z,7.77
2023-03-26T04:10:45.394Z,7.73
2023-03-26T04:11:51.815Z,7.70
2023-03-26T04:12:54.388Z,7.79
2023-03-26T04:13:56.892Z,7.70
2023-03-26T04:14:59.880Z,7.91
2023-03-26T04:16:01.949Z,7.97
2023-03-26T04:17:05.956Z,7.91
2023-03-26T04:18:12.173Z,7.83
2023-03-26T04:19:15.304Z,7.77
2023-03-26T04:20:19.360Z,7.72
2023-03-26T04:21:21.703Z,7.76
2023-03-26T04:22:24.409Z,7.75
2023-03-26T04:23:29.306Z,7.90
2023-03-26T04:24:34.071Z,7.86
2023-03-26T04:25:39.434Z,7.81
2023-03-26T04:26:41.729Z,7.87
2023-03-26T04:27:44.232Z,7.79
2023-03-26T04:28:56.753Z,7.69
2023-03-26T04:30:01.673Z,8.08
2023-03-26T04:31:04.349Z,7.92
2023-03-26T04:32:12.642Z,7.91
2023-03-26T04:33:15.561Z,7.83
2023-03-26T04:34:26.150Z,7.95
2023-03-26T04:35:30.443Z,7.63
2023-03-26T04:36:34.297Z,7.64
2023-03-26T04:37:41.871Z,7.59
2023-03-26T04:38:49.324Z,7.42
2023-03-26T04:39:52.438Z,7.33
2023-03-26T04:41:00.296Z,7.21
2023-03-26T04:42:05.628Z,7.17
2023-03-26T04:43:13.029Z,7.09
2023-03-26T04:44:17.110Z,7.02
2023-03-26T04:45:23.257Z,7.01
2023-03-26T04:46:28.013Z,7.08
2023-03-26T04:47:30.402Z,6.91
2023-03-26T04:48:32.683Z,6.81
2023-03-26T04:49:35.044Z,6.82
2023-03-26T04:50:37.721Z,6.77
2023-03-26T04:51:41.997Z,6.75
2023-03-26T04:52:45.437Z,6.86
2023-03-26T04:53:54.790Z,6.99
2023-03-26T04:54:57.664Z,6.74
2023-03-26T04:56:02.556Z,7.00
2023-03-26T04:57:11.222Z,7.12
2023-03-26T04:58:14.080Z,6.87
2023-03-26T04:59:26.517Z,7.11
2023-03-26T05:00:29.149Z,6.97
2023-03-26T05:01:37.939Z,6.92
2023-03-26T05:02:41.896Z,7.08
2023-03-26T05:03:45.765Z,6.83
2023-03-26T05:04:50.021Z,6.94
2023-03-26T05:05:53.083Z,6.89
2023-03-26T05:07:00.809Z,6.93
2023-03-26T05:08:03.767Z,6.67
2023-03-26T05:09:05.777Z,6.89
2023-03-26T05:10:13.480Z,7.35
2023-03-26T05:11:15.801Z,8.47
2023-03-26T05:12:18.085Z,9.44
2023-03-26T05:13:20.872Z,9.70
2023-03-26T05:14:23.278Z,9.55
2023-03-26T05:15:25.384Z,10.07
2023-03-26T05:16:29.486Z,10.66
2023-03-26T05:17:34.893Z,11.28
2023-03-26T05:18:37.356Z,12.09
2023-03-26T05:19:40.653Z,11.96
2023-03-26T05:20:43.568Z,11.51
2023-03-26T05:21:46.064Z,11.24
2023-03-26T05:22:50.119Z,10.64
2023-03-26T05:23:53.606Z,10.47
2023-03-26T05:24:56.331Z,10.61
2023-03-26T05:25:58.334Z,10.37
2023-03-26T05:27:00.376Z,10.11
2023-03-26T05:28:19.293Z,10.21
2023-03-26T05:29:24.174Z,9.94
2023-03-26T05:30:26.300Z,9.81
2023-03-26T05:31:30.847Z,9.54
2023-03-26T05:32:34.678Z,9.72
2023-03-26T05:33:37.356Z,9.39
2023-03-26T05:34:40.536Z,9.46
2023-03-26T05:35:43.551Z,9.74
2023-03-26T05:36:45.701Z,9.81
2023-03-26T05:37:51.495Z,10.09
2023-03-26T05:38:56.215Z,10.17
2023-03-26T05:40:00.717Z,10.11
2023-03-26T05:41:08.726Z,9.96
2023-03-26T05:42:10.982Z,9.73
2023-03-26T05:43:14.040Z,9.75
2023-03-26T05:44:16.609Z,9.69
2023-03-26T05:45:18.865Z,9.64
2023-03-26T05:46:22.985Z,9.68
2023-03-26T05:47:27.371Z,9.94
2023-03-26T05:48:29.615Z,10.34
2023-03-26T05:49:31.854Z,10.60
2023-03-26T05:50:33.796Z,10.86
2023-03-26T05:51:35.805Z,10.92
2023-03-26T05:52:44.617Z,10.70
2023-03-26T05:54:15.349Z,10.55
2023-03-26T05:55:20.275Z,10.91
2023-03-26T05:56:25.714Z,11.17
2023-03-26T05:57:35.611Z,11.29
2023-03-26T05:58:42.149Z,11.32
2023-03-26T06:00:04.745Z,11.55
2023-03-26T06:01:17.123Z,11.26
2023-03-26T06:02:19.789Z,11.34
2023-03-26T06:03:24.012Z,11.85
2023-03-26T06:04:28.667Z,12.11
2023-03-26T06:05:37.419Z,12.13
2023-03-26T06:06:40.072Z,12.12
2023-03-26T06:07:42.597Z,12.15
2023-03-26T06:09:01.578Z,12.25
2023-03-26T06:10:04.864Z,12.59
2023-03-26T06:11:08.206Z,12.72
2023-03-26T06:12:11.747Z,12.69
2023-03-26T06:13:16.264Z,12.91
2023-03-26T06:14:18.528Z,13.16
2023-03-26T06:15:25.941Z,13.31
2023-03-26T06:16:28.317Z,13.14
2023-03-26T06:17:30.926Z,13.07
2023-03-26T06:18:35.004Z,13.15
2023-03-26T06:19:38.125Z,13.08
2023-03-26T06:20:41.855Z,12.93
2023-03-26T06:21:44.417Z,13.22
2023-03-26T06:22:47.558Z,13.62
2023-03-26T06:23:51.716Z,13.95
2023-03-26T06:24:58.646Z,13.95
2023-03-26T06:26:01.436Z,13.47
2023-03-26T06:27:04.937Z,13.76
2023-03-26T06:28:07.286Z,13.83
2023-03-26T06:29:10.517Z,14.21
2023-03-26T06:30:12.982Z,14.27
2023-03-26T06:31:17.380Z,14.44
2023-03-26T06:32:20.357Z,14.35
2023-03-26T06:33:24.593Z,14.58
2023-03-26T06:34:28.315Z,14.48
2023-03-26T06:35:31.100Z,14.23
2023-03-26T06:36:33.649Z,14.02
2023-03-26T06:37:36.251Z,14.40
2023-03-26T06:38:38.096Z,14.68
2023-03-26T06:39:41.255Z,14.77
2023-03-26T06:40:45.778Z,14.67
2023-03-26T06:41:49.199Z,14.96
2023-03-26T06:43:08.530Z,15.13
2023-03-26T06:44:13.429Z,15.27
2023-03-26T06:45:19.876Z,15.42
2023-03-26T06:46:26.532Z,15.29
2023-03-26T06:47:29.591Z,15.55
2023-03-26T06:48:33.150Z,15.72
2023-03-26T06:49:36.093Z,15.57
2023-03-26T06:50:38.439Z,15.56
2023-03-26T06:51:41.491Z,15.40
2023-03-26T06:52:44.733Z,15.25
2023-03-26T06:53:47.024Z,15.15
2023-03-26T06:54:51.278Z,15.23
2023-03-26T06:55:57.248Z,14.91
2023-03-26T06:56:59.951Z,14.46
2023-03-26T06:58:02.617Z,14.38
2023-03-26T06:59:04.946Z,14.43
2023-03-26T07:00:26.680Z,14.34
2023-03-26T07:01:36.651Z,14.40
2023-03-26T07:02:53.587Z,14.29
2023-03-26T07:04:07.440Z,14.26
2023-03-26T07:05:18.794Z,14.42
2023-03-26T07:06:28.130Z,14.19
2023-03-26T07:07:35.726Z,14.23
2023-03-26T07:08:52.239Z,14.29
2023-03-26T07:09:57.681Z,14.16
2023-03-26T07:11:01.970Z,14.20
2023-03-26T07:12:04.884Z,14.36
2023-03-26T07:13:08.063Z,14.01
2023-03-26T07:14:11.967Z,13.85
2023-03-26T07:15:15.072Z,13.91
2023-03-26T07:16:17.767Z,13.82
2023-03-26T07:17:22.582Z,13.84
2023-03-26T07:18:24.797Z,13.93
2023-03-26T07:19:27.376Z,14.21
2023-03-26T07:20:29.544Z,14.05
2023-03-26T07:21:31.907Z,14.14
2023-03-26T07:22:35.369Z,14.15
2023-03-26T07:23:42.114Z,14.44
2023-03-26T07:24:48.013Z,14.61
2023-03-26T07:25:51.624Z,14.69
2023-03-26T07:27:24.065Z,14.68
2023-03-26T07:28:40.131Z,15.01
2023-03-26T07:29:47.447Z,14.73
2023-03-26T07:31:20.128Z,15.09
2023-03-26T07:32:25.286Z,14.80
2023-03-26T07:33:39.948Z,14.83
2023-03-26T07:34:49.026Z,14.48
2023-03-26T07:35:57.106Z,14.76
2023-03-26T07:37:12.606Z,14.44
2023-03-26T07:38:30.445Z,14.25
2023-03-26T07:40:03.546Z,14.18
2023-03-26T07:41:24.417Z,14.34
2023-03-26T07:42:41.192Z,14.34
2023-03-26T07:44:03.401Z,14.12
2023-03-26T07:45:21.221Z,14.31
2023-03-26T07:46:34.393Z,14.45
2023-03-26T07:47:37.511Z,14.36
2023-03-26T07:48:45.151Z,14.13
2023-03-26T07:49:47.532Z,14.22
2023-03-26T07:50:50.296Z,14.02
2023-03-26T07:51:53.904Z,14.15
2023-03-26T07:52:56.916Z,14.37
2023-03-26T07:54:04.098Z,14.33
2023-03-26T07:55:07.408Z,14.27
2023-03-26T07:56:18.008Z,14.22
2023-03-26T07:57:40.742Z,14.10
2023-03-26T07:59:07.749Z,14.18
2023-03-26T08:00:37.345Z,14.04
2023-03-26T08:02:20.001Z,14.07
2023-03-26T08:03:44.997Z,14.36
2023-03-26T08:05:19.785Z,14.34
2023-03-26T08:06:34.195Z,13.98
2023-03-26T08:07:58.511Z,13.97
2023-03-26T08:09:04.854Z,14.53
2023-03-26T08:10:39.182Z,14.67
2023-03-26T08:12:06.749Z,14.92
2023-03-26T08:13:22.973Z,14.96
2023-03-26T08:14:36.448Z,14.95
2023-03-26T08:15:46.104Z,15.21
2023-03-26T08:16:56.436Z,15.67
2023-03-26T08:18:21.801Z,15.91
2023-03-26T08:19:44.823Z,15.85
2023-03-26T08:20:51.012Z,15.87
2023-03-26T08:21:54.462Z,15.95
2023-03-26T08:23:19.423Z,15.64
2023-03-26T08:24:47.620Z,15.44
2023-03-26T08:26:31.187Z,15.64
2023-03-26T08:28:12.611Z,15.46
2023-03-26T08:29:45.291Z,15.27
2023-03-26T08:30:47.369Z,15.40
2023-03-26T08:31:49.856Z,15.40
2023-03-26T08:33:13.499Z,15.03
2023-03-26T08:34:15.857Z,15.26
2023-03-26T08:35:17.960Z,15.39
2023-03-26T08:36:19.864Z,15.24
2023-03-26T08:37:22.043Z,15.42
2023-03-26T08:38:23.950Z,15.40
2023-03-26T08:39:25.800Z,15.15
2023-03-26T08:40:48.070Z,15.33
2023-03-26T08:41:52.638Z,15.43
2023-03-26T08:42:54.822Z,14.92
2023-03-26T08:44:02.675Z,14.92
2023-03-26T08:45:23.374Z,14.96
2023-03-26T08:46:34.013Z,15.01
2023-03-26T08:47:45.367Z,14.81
2023-03-26T08:48:59.911Z,15.10
2023-03-26T08:50:20.265Z,14.98
2023-03-26T08:51:31.011Z,15.13
2023-03-26T08:52:48.164Z,14.83
2023-03-26T08:54:06.256Z,15.04
2023-03-26T08:55:37.826Z,15.15
2023-03-26T08:57:06.247Z,15.04
2023-03-26T08:58:33.282Z,14.73
2023-03-26T08:59:41.411Z,14.92
2023-03-26T09:01:05.200Z,15.03
2023-03-26T09:02:54.522Z,15.04
2023-03-26T09:03:59.021Z,14.92
2023-03-26T09:05:20.692Z,14.86
2023-03-26T09:06:54.999Z,14.79
2023-03-26T09:08:18.860Z,14.79
2023-03-26T09:09:39.970Z,14.93
2023-03-26T09:10:51.362Z,15.03
2023-03-26T09:11:56.073Z,15.01
2023-03-26T09:13:09.783Z,15.02
2023-03-26T09:14:24.306Z,15.17
2023-03-26T09:15:32.107Z,15.38
2023-03-26T09:17:02.007Z,15.56
2023-03-26T09:18:09.806Z,15.86
2023-03-26T09:19:49.546Z,16.18
2023-03-26T09:21:16.478Z,16.69
2023-03-26T09:23:07.000Z,16.97
2023-03-26T09:24:37.593Z,17.20
2023-03-26T09:26:11.471Z,17.45
2023-03-26T09:27:38.124Z,17.98
2023-03-26T09:29:18.364Z,18.32
2023-03-26T09:30:41.364Z,18.77
2023-03-26T09:32:02.434Z,18.52
2023-03-26T09:33:28.413Z,18.26
2023-03-26T09:34:57.077Z,18.14
2023-03-26T09:36:32.283Z,18.32
2023-03-26T09:38:06.494Z,18.67
2023-03-26T09:39:36.616Z,18.77
2023-03-26T09:41:01.456Z,19.22
2023-03-26T09:42:41.991Z,19.06
2023-03-26T09:44:21.063Z,18.83
2023-03-26T09:45:43.710Z,18.84
2023-03-26T09:47:10.609Z,18.95
2023-03-26T09:48:24.570Z,18.74
2023-03-26T09:50:02.038Z,18.57
2023-03-26T09:51:09.348Z,18.48
2023-03-26T09:52:14.803Z,17.97
2023-03-26T09:53:41.484Z,17.92
2023-03-26T09:55:19.695Z,17.46
2023-03-26T09:56:30.751Z,17.75
2023-03-26T09:57:53.828Z,17.96
2023-03-26T09:59:08.195Z,17.42
2023-03-26T10:00:31.354Z,17.37
2023-03-26T10:01:53.881Z,17.48
2023-03-26T10:02:55.700Z,17.37
2023-03-26T10:04:16.111Z,16.97
2023-03-26T10:05:41.386Z,17.22
2023-03-26T10:07:05.487Z,17.30
2023-03-26T10:08:18.581Z,17.45
2023-03-26T10:09:20.610Z,17.28
2023-03-26T10:10:53.242Z,17.35
2023-03-26T10:12:15.864Z,17.40
2023-03-26T10:13:26.665Z,17.49
2023-03-26T10:15:18.127Z,17.74
2023-03-26T10:16:44.131Z,17.67
2023-03-26T10:18:28.225Z,17.55
2023-03-26T10:19:47.838Z,17.37
2023-03-26T10:21:03.617Z,17.80
2023-03-26T10:22:09.766Z,17.61
2023-03-26T10:23:18.614Z,17.80
2023-03-26T10:24:57.683Z,17.96
2023-03-26T10:26:14.401Z,17.73
2023-03-26T10:27:34.598Z,18.17
2023-03-26T10:28:36.844Z,18.29
2023-03-26T10:30:04.095Z,18.33
2023-03-26T10:31:37.815Z,18.14
2023-03-26T10:33:11.671Z,18.05
2023-03-26T10:34:28.082Z,17.82
2023-03-26T10:35:31.340Z,17.58
2023-03-26T10:36:43.018Z,17.80
2023-03-26T10:38:06.552Z,17.76
2023-03-26T10:39:36.167Z,17.61
2023-03-26T10:41:07.606Z,17.22
2023-03-26T10:42:16.474Z,16.86
2023-03-26T10:44:07.301Z,16.66
2023-03-26T10:45:37.515Z,16.62
2023-03-26T10:47:10.923Z,16.51
2023-03-26T10:48:27.804Z,16.41
2023-03-26T10:49:41.582Z,16.22
2023-03-26T10:51:53.407Z,15.73
2023-03-26T10:53:12.574Z,15.77
2023-03-26T10:54:20.515Z,15.40
2023-03-26T10:55:40.784Z,15.42
2023-03-26T10:56:47.077Z,15.36
2023-03-26T10:57:56.125Z,15.08
2023-03-26T10:59:05.387Z,15.15
2023-03-26T11:00:37.720Z,14.72
2023-03-26T11:01:54.861Z,14.73
2023-03-26T11:03:20.783Z,14.29
2023-03-26T11:04:42.911Z,13.80
2023-03-26T11:06:16.137Z,14.20
2023-03-26T11:07:38.313Z,14.61
2023-03-26T11:08:55.640Z,14.76
2023-03-26T11:10:01.794Z,15.07
2023-03-26T11:11:16.842Z,15.23
2023-03-26T11:12:26.738Z,15.35
2023-03-26T11:13:29.977Z,15.61
2023-03-26T11:14:37.885Z,15.95
2023-03-26T11:16:03.166Z,16.11
2023-03-26T11:17:40.021Z,16.19
2023-03-26T11:19:08.108Z,16.40
2023-03-26T11:20:31.347Z,16.11
2023-03-26T11:21:38.095Z,16.49
2023-03-26T11:22:43.019Z,16.87
2023-03-26T11:24:08.998Z,17.18
2023-03-26T11:25:26.130Z,17.64
2023-03-26T11:26:55.771Z,17.40
2023-03-26T11:28:09.522Z,17.40
2023-03-26T11:29:31.598Z,17.35
2023-03-26T11:30:49.961Z,17.15
2023-03-26T11:32:15.578Z,17.03
2023-03-26T11:33:26.826Z,17.02
2023-03-26T11:34:58.274Z,16.53
2023-03-26T11:36:07.699Z,16.70
2023-03-26T11:37:18.870Z,16.57
2023-03-26T11:38:37.417Z,16.38
2023-03-26T11:39:51.240Z,16.67
2023-03-26T11:40:56.338Z,17.31
2023-03-26T11:42:07.566Z,17.58
2023-03-26T11:43:13.873Z,17.99
2023-03-26T11:44:27.520Z,18.03
2023-03-26T11:45:38.096Z,18.21
2023-03-26T11:46:44.327Z,17.84
2023-03-26T11:47:54.577Z,18.17
2023-03-26T11:48:59.878Z,18.33
2023-03-26T11:50:05.724Z,18.19
2023-03-26T11:51:11.664Z,18.27
2023-03-26T11:52:15.734Z,18.10
2023-03-26T11:53:20.661Z,18.27
2023-03-26T11:54:22.684Z,18.08
2023-03-26T11:55:27.574Z,18.00
2023-03-26T11:57:04.793Z,18.14
2023-03-26T11:58:18.080Z,17.78
2023-03-26T11:59:45.148Z,17.85
2023-03-26T12:00:54.874Z,17.94
2023-03-26T12:02:24.547Z,17.95
2023-03-26T12:03:30.254Z,17.56
2023-03-26T12:04:41.098Z,18.17
2023-03-26T12:05:53.619Z,17.97
2023-03-26T12:06:59.721Z,18.32
2023-03-26T12:08:27.493Z,18.56
2023-03-26T12:09:29.869Z,18.81
2023-03-26T12:10:41.369Z,19.20
2023-03-26T12:11:45.176Z,18.51
2023-03-26T12:12:47.979Z,18.71
2023-03-26T12:13:58.074Z,18.93
2023-03-26T12:15:01.062Z,19.10
2023-03-26T12:16:15.375Z,19.51
2023-03-26T12:17:36.788Z,19.62
2023-03-26T12:18:41.139Z,19.74
2023-03-26T12:19:45.588Z,19.43
2023-03-26T12:20:49.496Z,19.74
2023-03-26T12:21:52.999Z,19.80
2023-03-26T12:22:59.232Z,20.05
2023-03-26T12:24:05.219Z,19.84
2023-03-26T12:25:21.087Z,19.80
2023-03-26T12:26:56.770Z,19.97
2023-03-26T12:28:13.838Z,19.65
2023-03-26T12:29:19.099Z,19.64
2023-03-26T12:30:25.961Z,19.45
2023-03-26T12:31:30.421Z,19.00
2023-03-26T12:32:43.320Z,18.48
2023-03-26T12:34:06.410Z,18.54
2023-03-26T12:35:18.935Z,18.57
2023-03-26T12:36:24.692Z,18.48
2023-03-26T12:37:38.571Z,18.44
2023-03-26T12:38:42.437Z,18.48
2023-03-26T12:40:09.321Z,18.60
2023-03-26T12:44:42.056Z,19.05
2023-03-26T12:44:45.118Z,19.17
2023-03-26T12:44:57.674Z,19.34
2023-03-26T12:47:46.148Z,19.33
2023-03-26T12:47:59.035Z,18.96
2023-03-26T12:48:59.828Z,18.86
2023-03-26T12:50:01.949Z,18.76
2023-03-26T12:51:15.795Z,18.65
2023-03-26T12:52:53.125Z,18.29
2023-03-26T12:54:13.522Z,18.19
2023-03-26T12:55:28.895Z,17.66
2023-03-26T12:57:12.404Z,17.97
2023-03-26T12:58:42.787Z,18.01
2023-03-26T12:59:53.420Z,18.32
2023-03-26T13:01:18.782Z,18.16
2023-03-26T13:02:39.404Z,18.66
2023-03-26T13:04:15.142Z,18.76
2023-03-26T13:05:23.782Z,19.25
2023-03-26T13:06:33.677Z,19.35
2023-03-26T13:08:13.765Z,19.41
2023-03-26T13:09:57.540Z,19.11
2023-03-26T13:11:17.242Z,19.40
2023-03-26T13:12:38.292Z,19.63
2023-03-26T13:14:04.838Z,19.76
2023-03-26T13:15:17.873Z,19.61
2023-03-26T13:16:46.604Z,19.61
2023-03-26T13:17:57.965Z,19.21
2023-03-26T13:19:20.691Z,19.29
2023-03-26T13:20:35.093Z,19.30
2023-03-26T13:22:07.350Z,19.27
2023-03-26T13:23:32.670Z,19.44
2023-03-26T13:24:40.310Z,19.45
2023-03-26T13:26:00.887Z,19.49
2023-03-26T13:27:20.996Z,19.63
2023-03-26T13:28:36.519Z,19.45
2023-03-26T13:30:07.656Z,19.23
2023-03-26T13:31:23.990Z,19.15
2023-03-26T13:32:42.647Z,19.05
2023-03-26T13:34:19.275Z,18.97
2023-03-26T13:35:42.447Z,18.66
2023-03-26T13:37:07.406Z,18.75
2023-03-26T13:38:37.215Z,18.89
2023-03-26T13:40:10.233Z,19.10
2023-03-26T13:41:20.972Z,19.05
2023-03-26T13:42:28.917Z,19.08
2023-03-26T13:43:36.801Z,19.02
2023-03-26T13:45:05.193Z,19.34
2023-03-26T13:46:29.987Z,19.14
2023-03-26T13:47:38.468Z,18.78
2023-03-26T13:48:52.999Z,18.74
2023-03-26T13:50:14.431Z,18.56
2023-03-26T13:51:26.410Z,18.74
2023-03-26T13:52:37.586Z,18.66
2023-03-26T13:53:50.527Z,18.34
2023-03-26T13:55:03.748Z,18.80
2023-03-26T13:56:07.237Z,18.69
2023-03-26T13:57:17.340Z,18.72
2023-03-26T13:58:43.307Z,18.78
2023-03-26T13:59:56.369Z,19.04
2023-03-26T14:01:11.037Z,19.00
2023-03-26T14:02:22.912Z,18.98
2023-03-26T14:03:46.148Z,18.75
2023-03-26T14:04:53.641Z,18.94
2023-03-26T14:06:00.201Z,19.01
2023-03-26T14:07:15.718Z,18.94
2023-03-26T14:08:41.836Z,18.89
2023-03-26T14:09:56.990Z,18.75
2023-03-26T14:11:07.757Z,19.08
2023-03-26T14:12:34.101Z,19.21
2023-03-26T14:13:39.260Z,19.11
2023-03-26T14:14:49.057Z,18.90
2023-03-26T14:16:20.941Z,18.65
2023-03-26T14:18:07.346Z,18.69
2023-03-26T14:19:12.458Z,18.93
2023-03-26T14:20:29.289Z,18.99
2023-03-26T14:22:08.215Z,19.04
2023-03-26T14:23:31.160Z,19.19
2023-03-26T14:24:53.875Z,19.02
2023-03-26T14:26:20.218Z,18.81
2023-03-26T14:27:40.550Z,18.76
2023-03-26T14:28:59.362Z,18.60
2023-03-26T14:30:23.130Z,18.27
2023-03-26T14:31:34.229Z,18.15
2023-03-26T14:33:27.574Z,18.30
2023-03-26T14:35:11.139Z,18.34
2023-03-26T14:36:34.449Z,18.30
2023-03-26T14:37:51.637Z,18.36
2023-03-26T14:39:27.085Z,18.26
2023-03-26T14:40:58.596Z,17.92
2023-03-26T14:42:25.852Z,18.17
2023-03-26T14:43:43.678Z,18.15
2023-03-26T14:45:01.317Z,18.17
2023-03-26T14:46:31.387Z,18.21
2023-03-26T14:47:43.348Z,18.24
2023-03-26T14:49:07.061Z,18.14
2023-03-26T14:50:31.479Z,18.09
2023-03-26T14:51:52.269Z,18.00
2023-03-26T14:53:00.836Z,17.93
2023-03-26T14:54:17.209Z,18.05
2023-03-26T14:55:37.196Z,18.06
2023-03-26T14:57:00.325Z,18.08
2023-03-26T14:58:10.768Z,18.27
2023-03-26T14:59:47.280Z,18.23
2023-03-26T15:01:25.984Z,18.31
2023-03-26T15:03:07.479Z,18.23
2023-03-26T15:04:15.838Z,18.29
2023-03-26T15:05:36.825Z,18.16
2023-03-26T15:07:16.021Z,18.23
2023-03-26T15:08:38.942Z,18.28
2023-03-26T15:10:18.628Z,18.13
2023-03-26T15:12:12.686Z,18.07
2023-03-26T15:13:33.962Z,18.01
2023-03-26T15:14:51.068Z,18.03
2023-03-26T15:16:27.542Z,17.89
2023-03-26T15:17:34.476Z,17.85
2023-03-26T15:19:03.973Z,17.81
2023-03-26T15:20:31.989Z,18.04
2023-03-26T15:21:46.547Z,17.91
2023-03-26T15:23:07.401Z,17.69
2023-03-26T15:24:50.974Z,17.72
2023-03-26T15:26:24.177Z,17.61
2023-03-26T15:27:42.362Z,17.83
2023-03-26T15:28:56.576Z,17.74
2023-03-26T15:30:41.372Z,17.75
2023-03-26T15:32:22.378Z,17.67
2023-03-26T15:33:54.797Z,17.88
2023-03-26T15:35:15.765Z,17.61
2023-03-26T15:36:51.014Z,17.60
2023-03-26T15:37:56.633Z,17.36
2023-03-26T15:39:23.453Z,17.44
2023-03-26T15:40:41.742Z,17.33
2023-03-26T15:41:53.545Z,17.40
2023-03-26T15:43:01.698Z,17.38